< < Back
Terminal Aerodrome Forecast


Current Version              Previous Versions:   1  2  3  4  5  6  7  8  9  

Terminal Aerodrome Forecast

600
FTUS42 KGSP 302300
TAFHKY
TAF
KHKY 302339Z 3100/3124 28003KT P6SM BKN250
     FM310300 00000KT P6SM SCT050 BKN250
     FM311400 16005KT P6SM BKN050=

Latest METAR

223
SAUS70 KWBC 310700 RRA
MTRHKY
METAR KHKY 310653Z 00000KT 10SM CLR 19/16 A3011 RMK AO2 SLP176
T01890161


USA.gov is the U.S. government's official web portal to all federal, state and local government web resources and services.